sensor_id;sensor_type;location;lat;lon;timestamp;P1;durP1;ratioP1;P2;durP2;ratioP2
14203;SDS011;7185;51.854;6.622;2023-09-19T00:01:14;14.85;;;2.85;;
14203;SDS011;7185;51.854;6.622;2023-09-19T00:03:50;16.25;;;3.17;;
14203;SDS011;7185;51.854;6.622;2023-09-19T00:06:23;14.27;;;3.05;;
14203;SDS011;7185;51.854;6.622;2023-09-19T00:08:56;12.32;;;3.30;;
14203;SDS011;7185;51.854;6.622;2023-09-19T00:11:30;12.43;;;3.17;;
14203;SDS011;7185;51.854;6.622;2023-09-19T00:14:02;14.57;;;3.25;;
14203;SDS011;7185;51.854;6.622;2023-09-19T00:16:35;11.82;;;2.88;;
14203;SDS011;7185;51.854;6.622;2023-09-19T00:19:07;13.10;;;3.33;;
14203;SDS011;7185;51.854;6.622;2023-09-19T00:21:39;15.52;;;3.50;;
14203;SDS011;7185;51.854;6.622;2023-09-19T00:24:11;18.58;;;3.53;;
14203;SDS011;7185;51.854;6.622;2023-09-19T00:26:45;14.23;;;3.40;;
14203;SDS011;7185;51.854;6.622;2023-09-19T00:29:17;16.85;;;3.15;;
14203;SDS011;7185;51.854;6.622;2023-09-19T00:31:49;13.90;;;3.08;;
14203;SDS011;7185;51.854;6.622;2023-09-19T00:34:21;13.85;;;2.72;;
14203;SDS011;7185;51.854;6.622;2023-09-19T00:36:52;15.18;;;3.20;;
14203;SDS011;7185;51.854;6.622;2023-09-19T00:39:24;13.07;;;2.60;;
14203;SDS011;7185;51.854;6.622;2023-09-19T00:41:57;13.77;;;3.10;;
14203;SDS011;7185;51.854;6.622;2023-09-19T00:44:34;15.57;;;3.35;;
14203;SDS011;7185;51.854;6.622;2023-09-19T00:47:07;15.45;;;3.10;;
14203;SDS011;7185;51.854;6.622;2023-09-19T00:49:39;14.73;;;3.58;;
14203;SDS011;7185;51.854;6.622;2023-09-19T00:52:11;15.55;;;3.10;;
14203;SDS011;7185;51.854;6.622;2023-09-19T00:54:43;15.45;;;3.25;;
14203;SDS011;7185;51.854;6.622;2023-09-19T00:57:16;13.68;;;3.15;;
14203;SDS011;7185;51.854;6.622;2023-09-19T00:59:49;15.00;;;3.40;;
14203;SDS011;7185;51.854;6.622;2023-09-19T01:02:23;11.52;;;2.67;;
14203;SDS011;7185;51.854;6.622;2023-09-19T01:04:54;18.35;;;3.38;;
14203;SDS011;7185;51.854;6.622;2023-09-19T01:07:26;14.02;;;2.92;;
14203;SDS011;7185;51.854;6.622;2023-09-19T01:10:00;12.85;;;3.20;;
14203;SDS011;7185;51.854;6.622;2023-09-19T01:12:36;15.20;;;3.53;;
14203;SDS011;7185;51.854;6.622;2023-09-19T01:15:14;15.07;;;3.35;;
14203;SDS011;7185;51.854;6.622;2023-09-19T01:17:49;15.20;;;3.65;;
14203;SDS011;7185;51.854;6.622;2023-09-19T01:20:27;11.95;;;2.95;;
14203;SDS011;7185;51.854;6.622;2023-09-19T01:23:04;12.75;;;3.25;;
14203;SDS011;7185;51.854;6.622;2023-09-19T01:25:44;27.45;;;4.07;;
14203;SDS011;7185;51.854;6.622;2023-09-19T01:28:33;18.45;;;3.05;;
14203;SDS011;7185;51.854;6.622;2023-09-19T01:31:10;14.18;;;2.90;;
14203;SDS011;7185;51.854;6.622;2023-09-19T01:33:55;8.93;;;2.88;;
14203;SDS011;7185;51.854;6.622;2023-09-19T01:36:31;10.60;;;3.03;;
14203;SDS011;7185;51.854;6.622;2023-09-19T01:39:06;14.65;;;3.45;;
14203;SDS011;7185;51.854;6.622;2023-09-19T01:41:54;16.88;;;3.58;;
14203;SDS011;7185;51.854;6.622;2023-09-19T01:47:01;15.63;;;2.97;;
14203;SDS011;7185;51.854;6.622;2023-09-19T01:52:09;12.73;;;3.25;;
14203;SDS011;7185;51.854;6.622;2023-09-19T01:54:46;15.32;;;3.30;;
14203;SDS011;7185;51.854;6.622;2023-09-19T01:57:22;13.10;;;2.95;;
14203;SDS011;7185;51.854;6.622;2023-09-19T01:59:59;14.20;;;3.40;;
14203;SDS011;7185;51.854;6.622;2023-09-19T02:02:37;12.48;;;3.45;;
14203;SDS011;7185;51.854;6.622;2023-09-19T02:05:10;10.93;;;3.10;;
14203;SDS011;7185;51.854;6.622;2023-09-19T02:07:42;9.63;;;3.00;;
14203;SDS011;7185;51.854;6.622;2023-09-19T02:10:14;17.92;;;3.63;;
14203;SDS011;7185;51.854;6.622;2023-09-19T02:12:46;13.18;;;2.83;;
14203;SDS011;7185;51.854;6.622;2023-09-19T02:15:18;14.63;;;3.30;;
14203;SDS011;7185;51.854;6.622;2023-09-19T02:17:51;17.60;;;3.30;;
14203;SDS011;7185;51.854;6.622;2023-09-19T02:20:23;10.93;;;3.22;;
14203;SDS011;7185;51.854;6.622;2023-09-19T02:22:56;13.13;;;3.35;;
14203;SDS011;7185;51.854;6.622;2023-09-19T02:25:27;15.73;;;3.33;;
14203;SDS011;7185;51.854;6.622;2023-09-19T02:27:59;12.57;;;3.33;;
14203;SDS011;7185;51.854;6.622;2023-09-19T02:30:33;16.17;;;3.10;;
14203;SDS011;7185;51.854;6.622;2023-09-19T02:33:06;17.02;;;2.92;;
14203;SDS011;7185;51.854;6.622;2023-09-19T02:35:39;12.25;;;2.83;;
14203;SDS011;7185;51.854;6.622;2023-09-19T02:38:10;13.23;;;3.22;;
14203;SDS011;7185;51.854;6.622;2023-09-19T02:40:44;12.40;;;3.30;;
14203;SDS011;7185;51.854;6.622;2023-09-19T02:43:16;12.70;;;2.67;;
14203;SDS011;7185;51.854;6.622;2023-09-19T02:45:49;18.23;;;2.95;;
14203;SDS011;7185;51.854;6.622;2023-09-19T02:48:25;14.40;;;2.95;;
14203;SDS011;7185;51.854;6.622;2023-09-19T02:50:57;17.75;;;3.38;;
14203;SDS011;7185;51.854;6.622;2023-09-19T02:53:28;13.48;;;2.97;;
14203;SDS011;7185;51.854;6.622;2023-09-19T02:56:01;10.95;;;2.53;;
14203;SDS011;7185;51.854;6.622;2023-09-19T02:58:34;12.32;;;3.15;;
14203;SDS011;7185;51.854;6.622;2023-09-19T03:01:12;16.48;;;3.05;;
14203;SDS011;7185;51.854;6.622;2023-09-19T03:03:46;18.38;;;3.47;;
14203;SDS011;7185;51.854;6.622;2023-09-19T03:06:17;9.88;;;2.58;;
14203;SDS011;7185;51.854;6.622;2023-09-19T03:08:50;14.50;;;2.83;;
14203;SDS011;7185;51.854;6.622;2023-09-19T03:11:22;10.85;;;2.63;;
14203;SDS011;7185;51.854;6.622;2023-09-19T03:13:53;12.45;;;3.28;;
14203;SDS011;7185;51.854;6.622;2023-09-19T03:16:25;11.95;;;2.83;;
14203;SDS011;7185;51.854;6.622;2023-09-19T03:18:58;12.07;;;2.70;;
14203;SDS011;7185;51.854;6.622;2023-09-19T03:21:30;15.80;;;3.08;;
14203;SDS011;7185;51.854;6.622;2023-09-19T03:24:02;12.80;;;3.08;;
14203;SDS011;7185;51.854;6.622;2023-09-19T03:26:34;14.07;;;3.67;;
14203;SDS011;7185;51.854;6.622;2023-09-19T03:29:06;15.68;;;3.05;;
14203;SDS011;7185;51.854;6.622;2023-09-19T03:31:42;11.40;;;2.85;;
14203;SDS011;7185;51.854;6.622;2023-09-19T03:34:16;11.50;;;2.45;;
14203;SDS011;7185;51.854;6.622;2023-09-19T03:36:47;15.23;;;2.97;;
14203;SDS011;7185;51.854;6.622;2023-09-19T03:39:19;12.68;;;2.90;;
14203;SDS011;7185;51.854;6.622;2023-09-19T03:41:51;11.82;;;3.28;;
14203;SDS011;7185;51.854;6.622;2023-09-19T03:44:23;13.18;;;2.80;;
14203;SDS011;7185;51.854;6.622;2023-09-19T03:46:55;15.88;;;3.15;;
14203;SDS011;7185;51.854;6.622;2023-09-19T03:49:28;14.38;;;3.03;;
14203;SDS011;7185;51.854;6.622;2023-09-19T03:52:00;18.48;;;3.50;;
14203;SDS011;7185;51.854;6.622;2023-09-19T03:54:32;14.63;;;3.30;;
14203;SDS011;7185;51.854;6.622;2023-09-19T03:57:03;15.20;;;4.60;;
14203;SDS011;7185;51.854;6.622;2023-09-19T03:59:36;16.73;;;3.38;;
14203;SDS011;7185;51.854;6.622;2023-09-19T04:02:07;14.05;;;3.28;;
14203;SDS011;7185;51.854;6.622;2023-09-19T04:04:43;10.82;;;2.90;;
14203;SDS011;7185;51.854;6.622;2023-09-19T04:07:18;15.30;;;3.05;;
14203;SDS011;7185;51.854;6.622;2023-09-19T04:09:52;19.50;;;3.05;;
14203;SDS011;7185;51.854;6.622;2023-09-19T04:12:27;15.35;;;3.10;;
14203;SDS011;7185;51.854;6.622;2023-09-19T04:14:58;15.75;;;3.50;;
14203;SDS011;7185;51.854;6.622;2023-09-19T04:17:31;12.95;;;2.78;;
14203;SDS011;7185;51.854;6.622;2023-09-19T04:20:07;9.75;;;2.50;;
14203;SDS011;7185;51.854;6.622;2023-09-19T04:22:39;13.10;;;2.80;;
14203;SDS011;7185;51.854;6.622;2023-09-19T04:25:25;11.93;;;3.42;;
14203;SDS011;7185;51.854;6.622;2023-09-19T04:27:57;15.50;;;3.10;;
14203;SDS011;7185;51.854;6.622;2023-09-19T04:30:29;14.98;;;3.03;;
14203;SDS011;7185;51.854;6.622;2023-09-19T04:33:01;10.88;;;3.28;;
14203;SDS011;7185;51.854;6.622;2023-09-19T04:35:42;10.77;;;2.63;;
14203;SDS011;7185;51.854;6.622;2023-09-19T04:38:14;12.60;;;2.90;;
14203;SDS011;7185;51.854;6.622;2023-09-19T04:40:46;10.80;;;2.67;;
14203;SDS011;7185;51.854;6.622;2023-09-19T04:43:18;12.10;;;2.50;;
14203;SDS011;7185;51.854;6.622;2023-09-19T04:45:49;11.65;;;2.28;;
14203;SDS011;7185;51.854;6.622;2023-09-19T04:48:21;10.25;;;2.78;;
14203;SDS011;7185;51.854;6.622;2023-09-19T04:50:56;10.77;;;2.40;;
14203;SDS011;7185;51.854;6.622;2023-09-19T04:53:29;19.00;;;3.20;;
14203;SDS011;7185;51.854;6.622;2023-09-19T04:56:01;12.65;;;2.33;;
14203;SDS011;7185;51.854;6.622;2023-09-19T04:58:33;14.05;;;2.45;;
14203;SDS011;7185;51.854;6.622;2023-09-19T05:01:05;11.35;;;2.55;;
14203;SDS011;7185;51.854;6.622;2023-09-19T05:03:41;11.23;;;2.78;;
14203;SDS011;7185;51.854;6.622;2023-09-19T05:06:16;12.40;;;2.55;;
14203;SDS011;7185;51.854;6.622;2023-09-19T05:08:48;9.65;;;2.83;;
14203;SDS011;7185;51.854;6.622;2023-09-19T05:11:21;10.82;;;3.00;;
14203;SDS011;7185;51.854;6.622;2023-09-19T05:13:54;10.98;;;2.35;;
14203;SDS011;7185;51.854;6.622;2023-09-19T05:16:28;13.00;;;3.15;;
14203;SDS011;7185;51.854;6.622;2023-09-19T05:19:00;10.80;;;2.20;;
14203;SDS011;7185;51.854;6.622;2023-09-19T05:21:33;10.63;;;2.53;;
14203;SDS011;7185;51.854;6.622;2023-09-19T05:24:05;10.77;;;2.75;;
14203;SDS011;7185;51.854;6.622;2023-09-19T05:26:37;14.18;;;3.10;;
14203;SDS011;7185;51.854;6.622;2023-09-19T05:29:10;11.13;;;2.30;;
14203;SDS011;7185;51.854;6.622;2023-09-19T05:31:42;21.77;;;3.80;;
14203;SDS011;7185;51.854;6.622;2023-09-19T05:34:16;12.57;;;2.67;;
14203;SDS011;7185;51.854;6.622;2023-09-19T05:36:56;12.20;;;2.97;;
14203;SDS011;7185;51.854;6.622;2023-09-19T05:39:30;9.52;;;2.40;;
14203;SDS011;7185;51.854;6.622;2023-09-19T05:42:02;11.82;;;2.13;;
14203;SDS011;7185;51.854;6.622;2023-09-19T05:44:34;14.52;;;3.05;;
14203;SDS011;7185;51.854;6.622;2023-09-19T05:47:11;12.00;;;2.60;;
14203;SDS011;7185;51.854;6.622;2023-09-19T05:49:53;8.80;;;2.88;;
14203;SDS011;7185;51.854;6.622;2023-09-19T05:52:47;13.32;;;2.80;;
14203;SDS011;7185;51.854;6.622;2023-09-19T05:55:31;12.52;;;2.50;;
14203;SDS011;7185;51.854;6.622;2023-09-19T05:58:08;15.07;;;3.45;;
14203;SDS011;7185;51.854;6.622;2023-09-19T06:00:47;14.02;;;3.28;;
14203;SDS011;7185;51.854;6.622;2023-09-19T06:03:23;10.98;;;2.63;;
14203;SDS011;7185;51.854;6.622;2023-09-19T06:05:54;10.90;;;2.55;;
14203;SDS011;7185;51.854;6.622;2023-09-19T06:08:31;15.52;;;2.78;;
14203;SDS011;7185;51.854;6.622;2023-09-19T06:11:09;12.48;;;2.50;;
14203;SDS011;7185;51.854;6.622;2023-09-19T06:13:45;8.80;;;2.50;;
14203;SDS011;7185;51.854;6.622;2023-09-19T06:16:17;14.98;;;2.90;;
14203;SDS011;7185;51.854;6.622;2023-09-19T06:18:57;17.10;;;2.78;;
14203;SDS011;7185;51.854;6.622;2023-09-19T06:21:30;16.08;;;3.05;;
14203;SDS011;7185;51.854;6.622;2023-09-19T06:24:12;13.55;;;3.42;;
14203;SDS011;7185;51.854;6.622;2023-09-19T06:26:44;8.65;;;2.40;;
14203;SDS011;7185;51.854;6.622;2023-09-19T06:29:18;14.18;;;2.92;;
14203;SDS011;7185;51.854;6.622;2023-09-19T06:32:06;13.75;;;3.58;;
14203;SDS011;7185;51.854;6.622;2023-09-19T06:34:38;12.63;;;2.63;;
14203;SDS011;7185;51.854;6.622;2023-09-19T06:37:13;11.85;;;2.70;;
14203;SDS011;7185;51.854;6.622;2023-09-19T06:39:47;7.80;;;2.33;;
14203;SDS011;7185;51.854;6.622;2023-09-19T06:42:38;9.57;;;2.35;;
14203;SDS011;7185;51.854;6.622;2023-09-19T06:45:11;8.60;;;2.28;;
14203;SDS011;7185;51.854;6.622;2023-09-19T06:47:43;11.75;;;2.60;;
14203;SDS011;7185;51.854;6.622;2023-09-19T06:50:15;16.70;;;3.33;;
14203;SDS011;7185;51.854;6.622;2023-09-19T06:52:55;14.13;;;2.90;;
14203;SDS011;7185;51.854;6.622;2023-09-19T06:55:44;15.40;;;3.30;;
14203;SDS011;7185;51.854;6.622;2023-09-19T07:03:20;13.70;;;2.58;;
14203;SDS011;7185;51.854;6.622;2023-09-19T07:05:55;8.52;;;2.95;;
14203;SDS011;7185;51.854;6.622;2023-09-19T07:08:28;11.40;;;2.83;;
14203;SDS011;7185;51.854;6.622;2023-09-19T07:11:02;11.45;;;2.60;;
14203;SDS011;7185;51.854;6.622;2023-09-19T07:13:36;9.70;;;2.40;;
14203;SDS011;7185;51.854;6.622;2023-09-19T07:16:08;8.75;;;2.40;;
14203;SDS011;7185;51.854;6.622;2023-09-19T07:18:49;12.40;;;2.90;;
14203;SDS011;7185;51.854;6.622;2023-09-19T07:21:20;10.43;;;2.45;;
14203;SDS011;7185;51.854;6.622;2023-09-19T07:23:52;10.70;;;2.30;;
14203;SDS011;7185;51.854;6.622;2023-09-19T07:26:25;10.15;;;2.83;;
14203;SDS011;7185;51.854;6.622;2023-09-19T07:28:57;14.55;;;2.60;;
14203;SDS011;7185;51.854;6.622;2023-09-19T07:31:28;11.18;;;2.75;;
14203;SDS011;7185;51.854;6.622;2023-09-19T07:34:07;15.05;;;2.88;;
14203;SDS011;7185;51.854;6.622;2023-09-19T07:39:20;13.02;;;3.13;;
14203;SDS011;7185;51.854;6.622;2023-09-19T07:42:02;11.02;;;2.60;;
14203;SDS011;7185;51.854;6.622;2023-09-19T07:44:35;13.50;;;3.88;;
14203;SDS011;7185;51.854;6.622;2023-09-19T07:47:07;12.27;;;2.60;;
14203;SDS011;7185;51.854;6.622;2023-09-19T07:49:39;14.73;;;3.05;;
14203;SDS011;7185;51.854;6.622;2023-09-19T07:52:15;15.43;;;3.20;;
14203;SDS011;7185;51.854;6.622;2023-09-19T07:54:47;16.73;;;3.15;;
14203;SDS011;7185;51.854;6.622;2023-09-19T07:57:36;10.73;;;2.58;;
14203;SDS011;7185;51.854;6.622;2023-09-19T08:00:14;9.45;;;2.85;;
14203;SDS011;7185;51.854;6.622;2023-09-19T08:02:46;10.15;;;2.85;;
14203;SDS011;7185;51.854;6.622;2023-09-19T08:05:33;12.35;;;2.63;;
14203;SDS011;7185;51.854;6.622;2023-09-19T08:08:18;13.60;;;3.33;;
14203;SDS011;7185;51.854;6.622;2023-09-19T08:10:53;11.68;;;3.30;;
14203;SDS011;7185;51.854;6.622;2023-09-19T08:13:31;15.47;;;2.53;;
14203;SDS011;7185;51.854;6.622;2023-09-19T08:16:19;13.30;;;2.92;;
14203;SDS011;7185;51.854;6.622;2023-09-19T08:19:10;13.25;;;3.03;;
14203;SDS011;7185;51.854;6.622;2023-09-19T08:22:02;15.02;;;2.50;;
14203;SDS011;7185;51.854;6.622;2023-09-19T08:24:52;9.13;;;2.55;;
14203;SDS011;7185;51.854;6.622;2023-09-19T08:27:36;16.13;;;3.13;;
14203;SDS011;7185;51.854;6.622;2023-09-19T08:30:24;15.23;;;3.08;;
14203;SDS011;7185;51.854;6.622;2023-09-19T08:33:15;13.95;;;2.63;;
14203;SDS011;7185;51.854;6.622;2023-09-19T08:35:51;12.60;;;3.22;;
14203;SDS011;7185;51.854;6.622;2023-09-19T08:38:23;11.32;;;2.55;;
14203;SDS011;7185;51.854;6.622;2023-09-19T08:41:05;10.27;;;2.33;;
14203;SDS011;7185;51.854;6.622;2023-09-19T08:43:44;20.38;;;3.38;;
14203;SDS011;7185;51.854;6.622;2023-09-19T08:49:19;10.45;;;2.55;;
14203;SDS011;7185;51.854;6.622;2023-09-19T08:52:02;9.57;;;2.50;;
14203;SDS011;7185;51.854;6.622;2023-09-19T08:54:51;11.60;;;2.95;;
14203;SDS011;7185;51.854;6.622;2023-09-19T08:57:40;13.27;;;2.65;;
14203;SDS011;7185;51.854;6.622;2023-09-19T09:00:22;15.52;;;3.08;;
14203;SDS011;7185;51.854;6.622;2023-09-19T09:02:59;13.32;;;3.13;;
14203;SDS011;7185;51.854;6.622;2023-09-19T09:05:39;17.70;;;3.42;;
14203;SDS011;7185;51.854;6.622;2023-09-19T09:08:21;13.13;;;3.22;;
14203;SDS011;7185;51.854;6.622;2023-09-19T09:11:07;9.75;;;2.85;;
14203;SDS011;7185;51.854;6.622;2023-09-19T09:13:39;13.52;;;2.78;;
14203;SDS011;7185;51.854;6.622;2023-09-19T09:16:17;12.13;;;2.72;;
14203;SDS011;7185;51.854;6.622;2023-09-19T09:18:49;11.88;;;2.80;;
14203;SDS011;7185;51.854;6.622;2023-09-19T09:21:26;11.93;;;3.20;;
14203;SDS011;7185;51.854;6.622;2023-09-19T09:23:58;14.45;;;2.55;;
14203;SDS011;7185;51.854;6.622;2023-09-19T09:26:42;14.00;;;2.78;;
14203;SDS011;7185;51.854;6.622;2023-09-19T09:29:14;12.77;;;2.85;;
14203;SDS011;7185;51.854;6.622;2023-09-19T09:31:46;13.93;;;3.08;;
14203;SDS011;7185;51.854;6.622;2023-09-19T09:34:18;11.45;;;2.53;;
14203;SDS011;7185;51.854;6.622;2023-09-19T09:36:52;13.48;;;2.97;;
14203;SDS011;7185;51.854;6.622;2023-09-19T09:39:30;14.48;;;3.22;;
14203;SDS011;7185;51.854;6.622;2023-09-19T09:42:02;10.60;;;2.65;;
14203;SDS011;7185;51.854;6.622;2023-09-19T09:44:36;16.48;;;3.13;;
14203;SDS011;7185;51.854;6.622;2023-09-19T09:47:08;8.95;;;2.70;;
14203;SDS011;7185;51.854;6.622;2023-09-19T09:49:57;9.20;;;2.80;;
14203;SDS011;7185;51.854;6.622;2023-09-19T09:52:47;10.43;;;2.72;;
14203;SDS011;7185;51.854;6.622;2023-09-19T09:55:19;9.73;;;2.85;;
14203;SDS011;7185;51.854;6.622;2023-09-19T10:00:23;9.98;;;2.85;;
14203;SDS011;7185;51.854;6.622;2023-09-19T10:03:02;13.68;;;2.92;;
14203;SDS011;7185;51.854;6.622;2023-09-19T10:05:38;12.90;;;2.90;;
14203;SDS011;7185;51.854;6.622;2023-09-19T10:08:17;9.30;;;2.38;;
14203;SDS011;7185;51.854;6.622;2023-09-19T10:10:50;12.80;;;2.80;;
14203;SDS011;7185;51.854;6.622;2023-09-19T10:13:25;13.57;;;2.97;;
14203;SDS011;7185;51.854;6.622;2023-09-19T10:15:57;11.50;;;2.75;;
14203;SDS011;7185;51.854;6.622;2023-09-19T10:18:30;11.55;;;2.53;;
14203;SDS011;7185;51.854;6.622;2023-09-19T10:21:06;13.10;;;2.55;;
14203;SDS011;7185;51.854;6.622;2023-09-19T10:23:40;10.90;;;3.10;;
14203;SDS011;7185;51.854;6.622;2023-09-19T10:26:16;8.95;;;2.20;;
14203;SDS011;7185;51.854;6.622;2023-09-19T10:28:48;12.70;;;2.53;;
14203;SDS011;7185;51.854;6.622;2023-09-19T10:31:21;9.32;;;2.50;;
14203;SDS011;7185;51.854;6.622;2023-09-19T10:33:54;13.23;;;2.53;;
14203;SDS011;7185;51.854;6.622;2023-09-19T10:36:26;11.93;;;2.20;;
14203;SDS011;7185;51.854;6.622;2023-09-19T10:39:02;13.05;;;2.63;;
14203;SDS011;7185;51.854;6.622;2023-09-19T10:41:36;13.00;;;2.78;;
14203;SDS011;7185;51.854;6.622;2023-09-19T10:44:08;9.60;;;2.33;;
14203;SDS011;7185;51.854;6.622;2023-09-19T10:46:40;10.05;;;2.55;;
14203;SDS011;7185;51.854;6.622;2023-09-19T10:49:12;6.75;;;1.95;;
14203;SDS011;7185;51.854;6.622;2023-09-19T10:51:44;13.57;;;2.88;;
14203;SDS011;7185;51.854;6.622;2023-09-19T10:54:19;10.60;;;2.83;;
14203;SDS011;7185;51.854;6.622;2023-09-19T10:56:53;11.40;;;3.38;;
14203;SDS011;7185;51.854;6.622;2023-09-19T10:59:29;9.52;;;2.47;;
14203;SDS011;7185;51.854;6.622;2023-09-19T11:02:15;9.23;;;2.40;;
14203;SDS011;7185;51.854;6.622;2023-09-19T11:04:47;9.88;;;2.70;;
14203;SDS011;7185;51.854;6.622;2023-09-19T11:07:20;15.10;;;2.78;;
14203;SDS011;7185;51.854;6.622;2023-09-19T11:09:53;9.55;;;2.47;;
14203;SDS011;7185;51.854;6.622;2023-09-19T11:18:09;8.13;;;2.08;;
14203;SDS011;7185;51.854;6.622;2023-09-19T11:24:05;11.25;;;2.25;;
14203;SDS011;7185;51.854;6.622;2023-09-19T11:27:15;8.65;;;2.45;;
14203;SDS011;7185;51.854;6.622;2023-09-19T11:32:26;8.02;;;2.20;;
14203;SDS011;7185;51.854;6.622;2023-09-19T11:35:17;7.20;;;1.83;;
14203;SDS011;7185;51.854;6.622;2023-09-19T11:40:46;10.98;;;2.22;;
14203;SDS011;7185;51.854;6.622;2023-09-19T11:48:41;9.13;;;2.33;;
14203;SDS011;7185;51.854;6.622;2023-09-19T11:51:18;8.98;;;2.00;;
14203;SDS011;7185;51.854;6.622;2023-09-19T11:54:10;7.53;;;2.10;;
14203;SDS011;7185;51.854;6.622;2023-09-19T11:56:45;5.50;;;1.88;;
14203;SDS011;7185;51.854;6.622;2023-09-19T11:59:26;7.07;;;2.10;;
14203;SDS011;7185;51.854;6.622;2023-09-19T12:04:43;6.30;;;1.60;;
14203;SDS011;7185;51.854;6.622;2023-09-19T12:07:18;6.70;;;1.80;;
14203;SDS011;7185;51.854;6.622;2023-09-19T12:10:02;8.48;;;2.00;;
14203;SDS011;7185;51.854;6.622;2023-09-19T12:15:11;9.50;;;2.10;;
14203;SDS011;7185;51.854;6.622;2023-09-19T12:17:58;11.05;;;2.55;;
14203;SDS011;7185;51.854;6.622;2023-09-19T12:20:49;8.23;;;2.17;;
14203;SDS011;7185;51.854;6.622;2023-09-19T12:23:26;9.32;;;2.38;;
14203;SDS011;7185;51.854;6.622;2023-09-19T12:26:08;9.70;;;2.22;;
14203;SDS011;7185;51.854;6.622;2023-09-19T12:28:43;10.15;;;2.20;;
14203;SDS011;7185;51.854;6.622;2023-09-19T12:31:15;9.25;;;1.95;;
14203;SDS011;7185;51.854;6.622;2023-09-19T12:33:54;9.30;;;1.90;;
14203;SDS011;7185;51.854;6.622;2023-09-19T12:36:39;9.53;;;2.20;;
14203;SDS011;7185;51.854;6.622;2023-09-19T12:39:34;7.22;;;2.17;;
14203;SDS011;7185;51.854;6.622;2023-09-19T12:42:09;10.65;;;2.20;;
14203;SDS011;7185;51.854;6.622;2023-09-19T12:44:41;10.20;;;2.20;;
14203;SDS011;7185;51.854;6.622;2023-09-19T12:47:14;10.77;;;2.17;;
14203;SDS011;7185;51.854;6.622;2023-09-19T12:50:09;7.20;;;2.10;;
14203;SDS011;7185;51.854;6.622;2023-09-19T12:52:56;8.00;;;2.20;;
14203;SDS011;7185;51.854;6.622;2023-09-19T12:55:31;7.88;;;2.13;;
14203;SDS011;7185;51.854;6.622;2023-09-19T12:58:07;8.38;;;1.90;;
14203;SDS011;7185;51.854;6.622;2023-09-19T13:00:40;8.82;;;1.73;;
14203;SDS011;7185;51.854;6.622;2023-09-19T13:03:12;6.25;;;2.03;;
14203;SDS011;7185;51.854;6.622;2023-09-19T13:05:49;6.05;;;1.52;;
14203;SDS011;7185;51.854;6.622;2023-09-19T13:11:04;8.30;;;2.05;;
14203;SDS011;7185;51.854;6.622;2023-09-19T13:13:40;8.85;;;1.80;;
14203;SDS011;7185;51.854;6.622;2023-09-19T13:16:14;7.32;;;1.92;;
14203;SDS011;7185;51.854;6.622;2023-09-19T13:18:50;6.47;;;1.58;;
14203;SDS011;7185;51.854;6.622;2023-09-19T13:21:29;6.68;;;1.58;;
14203;SDS011;7185;51.854;6.622;2023-09-19T13:24:19;7.75;;;1.90;;
14203;SDS011;7185;51.854;6.622;2023-09-19T13:26:52;10.82;;;2.00;;
14203;SDS011;7185;51.854;6.622;2023-09-19T13:29:24;5.82;;;1.60;;
14203;SDS011;7185;51.854;6.622;2023-09-19T13:31:56;7.35;;;1.65;;
14203;SDS011;7185;51.854;6.622;2023-09-19T13:34:27;11.70;;;1.80;;
14203;SDS011;7185;51.854;6.622;2023-09-19T13:36:59;8.77;;;1.67;;
14203;SDS011;7185;51.854;6.622;2023-09-19T13:39:31;5.05;;;1.60;;
14203;SDS011;7185;51.854;6.622;2023-09-19T13:42:04;5.55;;;1.35;;
14203;SDS011;7185;51.854;6.622;2023-09-19T13:44:36;6.22;;;1.48;;
14203;SDS011;7185;51.854;6.622;2023-09-19T13:47:07;7.20;;;1.30;;
14203;SDS011;7185;51.854;6.622;2023-09-19T13:49:40;5.95;;;1.50;;
14203;SDS011;7185;51.854;6.622;2023-09-19T13:52:12;5.88;;;1.65;;
14203;SDS011;7185;51.854;6.622;2023-09-19T13:54:44;9.80;;;1.80;;
14203;SDS011;7185;51.854;6.622;2023-09-19T13:57:17;7.05;;;1.75;;
14203;SDS011;7185;51.854;6.622;2023-09-19T13:59:48;6.10;;;1.30;;
14203;SDS011;7185;51.854;6.622;2023-09-19T14:02:20;8.07;;;1.30;;
14203;SDS011;7185;51.854;6.622;2023-09-19T14:04:53;7.65;;;2.08;;
14203;SDS011;7185;51.854;6.622;2023-09-19T14:07:25;10.50;;;1.77;;
14203;SDS011;7185;51.854;6.622;2023-09-19T14:09:56;5.93;;;1.58;;
14203;SDS011;7185;51.854;6.622;2023-09-19T14:12:29;6.20;;;1.40;;
14203;SDS011;7185;51.854;6.622;2023-09-19T14:15:03;6.78;;;1.25;;
14203;SDS011;7185;51.854;6.622;2023-09-19T14:17:34;8.73;;;1.65;;
14203;SDS011;7185;51.854;6.622;2023-09-19T14:20:06;6.05;;;1.40;;
14203;SDS011;7185;51.854;6.622;2023-09-19T14:22:40;7.13;;;1.75;;
14203;SDS011;7185;51.854;6.622;2023-09-19T14:25:12;5.55;;;1.30;;
14203;SDS011;7185;51.854;6.622;2023-09-19T14:27:46;5.60;;;1.60;;
14203;SDS011;7185;51.854;6.622;2023-09-19T14:30:17;5.40;;;1.38;;
14203;SDS011;7185;51.854;6.622;2023-09-19T14:32:49;4.47;;;1.40;;
14203;SDS011;7185;51.854;6.622;2023-09-19T14:35:21;4.25;;;1.20;;
14203;SDS011;7185;51.854;6.622;2023-09-19T14:37:53;4.07;;;1.10;;
14203;SDS011;7185;51.854;6.622;2023-09-19T14:40:25;3.80;;;1.10;;
14203;SDS011;7185;51.854;6.622;2023-09-19T14:42:58;5.22;;;1.48;;
14203;SDS011;7185;51.854;6.622;2023-09-19T14:45:30;5.57;;;1.50;;
14203;SDS011;7185;51.854;6.622;2023-09-19T14:48:01;4.85;;;1.02;;
14203;SDS011;7185;51.854;6.622;2023-09-19T14:50:35;3.95;;;1.33;;
14203;SDS011;7185;51.854;6.622;2023-09-19T14:53:07;3.30;;;1.10;;
14203;SDS011;7185;51.854;6.622;2023-09-19T14:55:40;3.50;;;1.05;;
14203;SDS011;7185;51.854;6.622;2023-09-19T14:58:16;3.22;;;1.00;;
14203;SDS011;7185;51.854;6.622;2023-09-19T15:00:48;3.88;;;1.10;;
14203;SDS011;7185;51.854;6.622;2023-09-19T15:03:21;3.97;;;1.58;;
14203;SDS011;7185;51.854;6.622;2023-09-19T15:05:58;2.78;;;0.98;;
14203;SDS011;7185;51.854;6.622;2023-09-19T15:08:30;4.43;;;1.08;;
14203;SDS011;7185;51.854;6.622;2023-09-19T15:11:04;7.20;;;1.40;;
14203;SDS011;7185;51.854;6.622;2023-09-19T15:13:38;4.95;;;1.42;;
14203;SDS011;7185;51.854;6.622;2023-09-19T15:16:09;3.65;;;1.52;;
14203;SDS011;7185;51.854;6.622;2023-09-19T15:18:42;5.97;;;0.90;;
14203;SDS011;7185;51.854;6.622;2023-09-19T15:21:15;5.35;;;1.00;;
14203;SDS011;7185;51.854;6.622;2023-09-19T15:26:16;4.18;;;1.10;;
14203;SDS011;7185;51.854;6.622;2023-09-19T15:29:04;4.05;;;1.10;;
14203;SDS011;7185;51.854;6.622;2023-09-19T15:31:44;5.88;;;1.77;;
14203;SDS011;7185;51.854;6.622;2023-09-19T15:36:54;5.97;;;1.10;;
14203;SDS011;7185;51.854;6.622;2023-09-19T15:39:25;3.65;;;1.10;;
14203;SDS011;7185;51.854;6.622;2023-09-19T15:42:03;3.90;;;1.00;;
14203;SDS011;7185;51.854;6.622;2023-09-19T15:44:40;4.18;;;1.20;;
14203;SDS011;7185;51.854;6.622;2023-09-19T15:47:19;4.50;;;1.10;;
14203;SDS011;7185;51.854;6.622;2023-09-19T15:49:51;4.18;;;1.30;;
14203;SDS011;7185;51.854;6.622;2023-09-19T15:52:22;5.15;;;1.13;;
14203;SDS011;7185;51.854;6.622;2023-09-19T15:54:56;4.72;;;1.20;;
14203;SDS011;7185;51.854;6.622;2023-09-19T15:57:27;7.53;;;1.38;;
14203;SDS011;7185;51.854;6.622;2023-09-19T16:00:02;3.97;;;1.13;;
14203;SDS011;7185;51.854;6.622;2023-09-19T16:02:34;4.95;;;1.15;;
14203;SDS011;7185;51.854;6.622;2023-09-19T16:05:06;8.05;;;1.85;;
14203;SDS011;7185;51.854;6.622;2023-09-19T16:07:37;7.78;;;1.65;;
14203;SDS011;7185;51.854;6.622;2023-09-19T16:10:09;5.50;;;1.15;;
14203;SDS011;7185;51.854;6.622;2023-09-19T16:12:41;2.28;;;0.93;;
14203;SDS011;7185;51.854;6.622;2023-09-19T16:15:14;5.78;;;1.40;;
14203;SDS011;7185;51.854;6.622;2023-09-19T16:17:46;5.15;;;1.70;;
14203;SDS011;7185;51.854;6.622;2023-09-19T16:20:17;7.32;;;1.88;;
14203;SDS011;7185;51.854;6.622;2023-09-19T16:22:49;2.70;;;1.08;;
14203;SDS011;7185;51.854;6.622;2023-09-19T16:25:21;5.07;;;1.25;;
14203;SDS011;7185;51.854;6.622;2023-09-19T16:27:54;6.93;;;1.40;;
14203;SDS011;7185;51.854;6.622;2023-09-19T16:30:27;4.75;;;1.50;;
14203;SDS011;7185;51.854;6.622;2023-09-19T16:32:59;7.10;;;1.77;;